sensor_id;sensor_type;location;lat;lon;timestamp;pressure;altitude;pressure_sealevel;temperature;humidity
39823;BME280;25499;53.958;10.970;2022-12-29T08:19:36;99695.81;;;8.39;100.00
39823;BME280;25499;53.958;10.970;2022-12-29T08:22:02;99705.41;;;8.32;100.00
39823;BME280;25499;53.958;10.970;2022-12-29T08:24:27;99693.28;;;8.31;100.00
39823;BME280;25499;53.958;10.970;2022-12-29T08:26:53;99708.06;;;8.25;100.00
39823;BME280;25499;53.958;10.970;2022-12-29T08:29:18;99715.00;;;8.22;100.00
39823;BME280;25499;53.958;10.970;2022-12-29T08:31:44;99709.72;;;8.33;100.00
39823;BME280;25499;53.958;10.970;2022-12-29T08:34:10;99702.00;;;8.26;100.00
39823;BME280;25499;53.958;10.970;2022-12-29T08:36:36;99712.28;;;8.35;100.00
39823;BME280;25499;53.958;10.970;2022-12-29T08:39:02;99696.78;;;8.32;100.00
39823;BME280;25499;53.958;10.970;2022-12-29T08:41:28;99695.03;;;8.32;100.00
39823;BME280;25499;53.958;10.970;2022-12-29T08:43:53;99705.47;;;8.26;100.00
39823;BME280;25499;53.958;10.970;2022-12-29T08:46:20;99708.00;;;8.32;100.00
39823;BME280;25499;53.958;10.970;2022-12-29T08:48:45;99696.81;;;8.29;100.00
39823;BME280;25499;53.958;10.970;2022-12-29T08:51:11;99690.78;;;8.27;100.00
39823;BME280;25499;53.958;10.970;2022-12-29T08:53:38;99693.28;;;8.33;100.00
39823;BME280;25499;53.958;10.970;2022-12-29T08:56:04;99695.03;;;8.32;100.00
39823;BME280;25499;53.958;10.970;2022-12-29T08:58:30;99703.63;;;8.36;100.00
39823;BME280;25499;53.958;10.970;2022-12-29T09:00:56;99701.06;;;8.31;100.00
39823;BME280;25499;53.958;10.970;2022-12-29T09:06:01;99696.66;;;8.41;100.00
39823;BME280;25499;53.958;10.970;2022-12-29T09:08:27;99704.44;;;8.39;100.00
39823;BME280;25499;53.958;10.970;2022-12-29T09:10:52;99719.09;;;8.45;100.00
39823;BME280;25499;53.958;10.970;2022-12-29T09:13:18;99714.81;;;8.44;100.00
39823;BME280;25499;53.958;10.970;2022-12-29T09:15:44;99715.63;;;8.49;100.00
39823;BME280;25499;53.958;10.970;2022-12-29T09:18:11;99718.06;;;8.60;100.00
39823;BME280;25499;53.958;10.970;2022-12-29T09:20:37;99724.19;;;8.57;100.00
39823;BME280;25499;53.958;10.970;2022-12-29T09:23:05;99716.28;;;8.67;100.00
39823;BME280;25499;53.958;10.970;2022-12-29T09:25:47;99722.97;;;8.86;100.00
39823;BME280;25499;53.958;10.970;2022-12-29T09:28:12;99716.03;;;8.85;100.00
39823;BME280;25499;53.958;10.970;2022-12-29T09:30:39;99727.25;;;8.89;100.00
39823;BME280;25499;53.958;10.970;2022-12-29T09:33:04;99729.84;;;8.89;100.00
39823;BME280;25499;53.958;10.970;2022-12-29T09:35:30;99733.41;;;8.82;100.00
39823;BME280;25499;53.958;10.970;2022-12-29T09:37:55;99736.03;;;8.77;100.00
39823;BME280;25499;53.958;10.970;2022-12-29T09:40:30;99741.19;;;8.80;100.00
39823;BME280;25499;53.958;10.970;2022-12-29T09:43:17;99736.00;;;8.80;100.00
39823;BME280;25499;53.958;10.970;2022-12-29T09:45:49;99741.19;;;8.80;100.00
39823;BME280;25499;53.958;10.970;2022-12-29T09:48:22;99741.16;;;8.83;100.00
39823;BME280;25499;53.958;10.970;2022-12-29T09:50:55;99732.41;;;8.92;100.00
39823;BME280;25499;53.958;10.970;2022-12-29T09:53:33;99735.00;;;8.92;100.00
39823;BME280;25499;53.958;10.970;2022-12-29T09:56:03;99750.31;;;9.12;100.00
39823;BME280;25499;53.958;10.970;2022-12-29T09:58:40;99735.78;;;9.59;100.00
39823;BME280;25499;53.958;10.970;2022-12-29T10:01:21;99743.94;;;9.34;100.00
39823;BME280;25499;53.958;10.970;2022-12-29T10:03:53;99738.09;;;9.20;100.00
39823;BME280;25499;53.958;10.970;2022-12-29T10:22:53;99731.66;;;9.46;100.00
39823;BME280;25499;53.958;10.970;2022-12-29T10:25:32;99734.28;;;9.43;100.00
39823;BME280;25499;53.958;10.970;2022-12-29T10:28:03;99727.44;;;9.39;100.00
39823;BME280;25499;53.958;10.970;2022-12-29T10:30:33;99746.47;;;9.39;100.00
39823;BME280;25499;53.958;10.970;2022-12-29T10:33:03;99745.13;;;9.71;100.00
39823;BME280;25499;53.958;10.970;2022-12-29T10:35:35;99742.44;;;9.76;100.00
39823;BME280;25499;53.958;10.970;2022-12-29T10:41:02;99736.59;;;9.61;100.00
39823;BME280;25499;53.958;10.970;2022-12-29T10:43:38;99746.91;;;9.67;100.00
39823;BME280;25499;53.958;10.970;2022-12-29T10:46:11;99746.53;;;9.89;100.00
39823;BME280;25499;53.958;10.970;2022-12-29T10:48:38;99734.53;;;9.82;100.00
39823;BME280;25499;53.958;10.970;2022-12-29T10:51:07;99740.75;;;9.73;100.00
39823;BME280;25499;53.958;10.970;2022-12-29T10:56:04;99742.75;;;9.56;100.00
39823;BME280;25499;53.958;10.970;2022-12-29T10:58:41;99735.88;;;9.51;100.00
39823;BME280;25499;53.958;10.970;2022-12-29T11:01:12;99741.88;;;9.55;100.00
39823;BME280;25499;53.958;10.970;2022-12-29T11:03:53;99739.31;;;9.53;100.00
39823;BME280;25499;53.958;10.970;2022-12-29T11:06:27;99739.22;;;9.61;100.00
39823;BME280;25499;53.958;10.970;2022-12-29T11:08:56;99738.94;;;9.78;100.00
39823;BME280;25499;53.958;10.970;2022-12-29T11:11:25;99734.31;;;9.94;100.00
39823;BME280;25499;53.958;10.970;2022-12-29T11:14:13;99712.34;;;10.12;98.16
39823;BME280;25499;53.958;10.970;2022-12-29T11:16:39;99719.81;;;10.32;96.26
39823;BME280;25499;53.958;10.970;2022-12-29T11:19:29;99729.69;;;10.60;94.13
39823;BME280;25499;53.958;10.970;2022-12-29T11:22:19;99707.72;;;11.14;90.34
39823;BME280;25499;53.958;10.970;2022-12-29T11:24:47;99721.25;;;10.91;89.43
39823;BME280;25499;53.958;10.970;2022-12-29T11:29:52;99671.06;;;12.26;83.09
39823;BME280;25499;53.958;10.970;2022-12-29T11:32:39;99673.63;;;13.46;79.58
39823;BME280;25499;53.958;10.970;2022-12-29T11:35:44;99659.13;;;13.62;75.49
39823;BME280;25499;53.958;10.970;2022-12-29T11:38:36;99676.00;;;13.25;75.48
39823;BME280;25499;53.958;10.970;2022-12-29T11:41:11;99660.44;;;13.49;73.44
39823;BME280;25499;53.958;10.970;2022-12-29T11:44:02;99642.31;;;12.87;73.53
39823;BME280;25499;53.958;10.970;2022-12-29T11:46:34;99671.09;;;12.86;75.22
39823;BME280;25499;53.958;10.970;2022-12-29T11:49:22;99685.16;;;13.67;73.98
39823;BME280;25499;53.958;10.970;2022-12-29T11:51:57;99666.38;;;13.54;73.40
39823;BME280;25499;53.958;10.970;2022-12-29T11:54:39;99673.06;;;13.62;72.16
39823;BME280;25499;53.958;10.970;2022-12-29T11:57:16;99686.81;;;12.55;74.55
39823;BME280;25499;53.958;10.970;2022-12-29T11:59:50;99717.00;;;11.99;76.72
39823;BME280;25499;53.958;10.970;2022-12-29T12:06:10;99727.25;;;12.07;78.02
39823;BME280;25499;53.958;10.970;2022-12-29T12:08:18;99740.09;;;11.04;79.23
39823;BME280;25499;53.958;10.970;2022-12-29T12:11:04;99762.03;;;10.92;81.73
39823;BME280;25499;53.958;10.970;2022-12-29T12:13:39;99753.03;;;10.64;81.75
39823;BME280;25499;53.958;10.970;2022-12-29T12:16:17;99762.94;;;10.45;82.55
39823;BME280;25499;53.958;10.970;2022-12-29T12:19:04;99770.66;;;10.49;83.91
39823;BME280;25499;53.958;10.970;2022-12-29T12:21:38;99775.09;;;10.43;84.75
39823;BME280;25499;53.958;10.970;2022-12-29T12:30:28;99764.69;;;9.94;86.17
39823;BME280;25499;53.958;10.970;2022-12-29T12:33:03;99771.66;;;9.92;87.16
39823;BME280;25499;53.958;10.970;2022-12-29T12:58:49;99762.41;;;9.74;85.93
39823;BME280;25499;53.958;10.970;2022-12-29T13:04:37;99769.41;;;9.68;86.20
39823;BME280;25499;53.958;10.970;2022-12-29T13:07:17;99770.38;;;9.63;86.51
39823;BME280;25499;53.958;10.970;2022-12-29T13:12:52;99774.78;;;9.56;87.22
39823;BME280;25499;53.958;10.970;2022-12-29T13:21:27;99783.56;;;9.49;88.16
39823;BME280;25499;53.958;10.970;2022-12-29T13:24:05;99789.63;;;9.48;88.79
39823;BME280;25499;53.958;10.970;2022-12-29T13:27:06;99781.75;;;9.54;88.15
39823;BME280;25499;53.958;10.970;2022-12-29T13:29:47;99793.91;;;9.52;88.61
39823;BME280;25499;53.958;10.970;2022-12-29T13:38:00;99794.78;;;9.52;89.19
39823;BME280;25499;53.958;10.970;2022-12-29T13:40:32;99798.25;;;9.51;89.23
39823;BME280;25499;53.958;10.970;2022-12-29T13:43:01;99791.28;;;9.52;89.81
39823;BME280;25499;53.958;10.970;2022-12-29T13:45:30;99790.56;;;9.44;90.19
39823;BME280;25499;53.958;10.970;2022-12-29T13:50:35;99787.91;;;9.47;89.24
39823;BME280;25499;53.958;10.970;2022-12-29T13:56:19;99794.81;;;9.49;89.29
39823;BME280;25499;53.958;10.970;2022-12-29T13:59:06;99822.56;;;9.47;89.36
39823;BME280;25499;53.958;10.970;2022-12-29T14:01:56;99807.84;;;9.45;89.38
39823;BME280;25499;53.958;10.970;2022-12-29T14:04:27;99807.00;;;9.44;90.46
39823;BME280;25499;53.958;10.970;2022-12-29T14:07:02;99809.59;;;9.46;90.13
39823;BME280;25499;53.958;10.970;2022-12-29T14:09:41;99825.19;;;9.46;90.20
39823;BME280;25499;53.958;10.970;2022-12-29T14:12:31;99820.00;;;9.43;89.37
39823;BME280;25499;53.958;10.970;2022-12-29T14:17:37;99830.38;;;9.44;88.88
39823;BME280;25499;53.958;10.970;2022-12-29T14:20:17;99834.66;;;9.47;89.33
39823;BME280;25499;53.958;10.970;2022-12-29T14:23:01;99836.44;;;9.45;88.58
39823;BME280;25499;53.958;10.970;2022-12-29T14:28:31;99842.56;;;9.41;88.52
39823;BME280;25499;53.958;10.970;2022-12-29T14:30:59;99837.41;;;9.36;89.10
39823;BME280;25499;53.958;10.970;2022-12-29T14:33:27;99860.88;;;9.30;89.17
39823;BME280;25499;53.958;10.970;2022-12-29T14:35:54;99878.22;;;9.28;89.61
39823;BME280;25499;53.958;10.970;2022-12-29T14:38:30;99901.69;;;9.20;90.90
39823;BME280;25499;53.958;10.970;2022-12-29T14:41:37;99948.50;;;9.11;93.79
39823;BME280;25499;53.958;10.970;2022-12-29T14:49:23;99949.03;;;8.55;99.39
39823;BME280;25499;53.958;10.970;2022-12-29T14:51:53;99953.41;;;8.41;100.00
39823;BME280;25499;53.958;10.970;2022-12-29T14:56:59;99955.28;;;8.25;100.00
39823;BME280;25499;53.958;10.970;2022-12-29T14:59:27;99942.34;;;8.14;100.00
39823;BME280;25499;53.958;10.970;2022-12-29T15:01:55;99956.25;;;8.07;100.00
39823;BME280;25499;53.958;10.970;2022-12-29T15:04:27;99962.25;;;8.15;100.00
39823;BME280;25499;53.958;10.970;2022-12-29T15:06:55;99963.16;;;8.05;100.00
39823;BME280;25499;53.958;10.970;2022-12-29T15:09:27;99959.75;;;8.00;100.00
39823;BME280;25499;53.958;10.970;2022-12-29T15:12:03;99969.22;;;8.06;100.00
39823;BME280;25499;53.958;10.970;2022-12-29T15:14:39;99969.19;;;8.07;100.00
39823;BME280;25499;53.958;10.970;2022-12-29T15:17:32;99973.53;;;8.02;100.00
39823;BME280;25499;53.958;10.970;2022-12-29T15:20:00;99980.47;;;7.98;100.00
39823;BME280;25499;53.958;10.970;2022-12-29T15:22:27;99981.31;;;8.10;100.00
39823;BME280;25499;53.958;10.970;2022-12-29T15:24:54;99989.91;;;8.12;100.00
39823;BME280;25499;53.958;10.970;2022-12-29T15:27:23;99980.44;;;8.06;100.00
39823;BME280;25499;53.958;10.970;2022-12-29T15:30:00;99992.53;;;8.04;100.00
39823;BME280;25499;53.958;10.970;2022-12-29T15:32:40;99998.56;;;8.12;100.00
39823;BME280;25499;53.958;10.970;2022-12-29T15:35:28;100002.91;;;8.07;100.00
39823;BME280;25499;53.958;10.970;2022-12-29T15:37:54;99995.97;;;8.12;100.00
39823;BME280;25499;53.958;10.970;2022-12-29T15:45:43;100033.16;;;8.11;100.00
39823;BME280;25499;53.958;10.970;2022-12-29T15:48:20;100034.00;;;8.09;100.00
39823;BME280;25499;53.958;10.970;2022-12-29T15:50:48;100031.41;;;8.07;100.00
39823;BME280;25499;53.958;10.970;2022-12-29T15:53:20;100034.91;;;8.05;100.00
39823;BME280;25499;53.958;10.970;2022-12-29T15:55:50;100034.84;;;8.09;100.00
39823;BME280;25499;53.958;10.970;2022-12-29T15:58:22;100040.09;;;7.98;100.00
39823;BME280;25499;53.958;10.970;2022-12-29T16:00:54;100044.38;;;8.04;100.00
39823;BME280;25499;53.958;10.970;2022-12-29T16:03:21;100050.47;;;8.00;100.00
39823;BME280;25499;53.958;10.970;2022-12-29T16:05:56;100047.94;;;7.89;100.00
39823;BME280;25499;53.958;10.970;2022-12-29T16:08:36;100047.03;;;7.89;100.00
39823;BME280;25499;53.958;10.970;2022-12-29T16:11:21;100053.09;;;7.88;100.00
39823;BME280;25499;53.958;10.970;2022-12-29T16:13:48;100046.25;;;7.74;100.00
39823;BME280;25499;53.958;10.970;2022-12-29T16:16:21;100056.59;;;7.71;100.00
39823;BME280;25499;53.958;10.970;2022-12-29T16:18:50;100059.19;;;7.68;100.00
39823;BME280;25499;53.958;10.970;2022-12-29T16:21:21;100072.16;;;7.65;100.00
39823;BME280;25499;53.958;10.970;2022-12-29T16:23:50;100078.19;;;7.69;100.00
39823;BME280;25499;53.958;10.970;2022-12-29T16:26:18;100084.25;;;7.63;100.00
39823;BME280;25499;53.958;10.970;2022-12-29T16:28:47;100089.44;;;7.69;100.00
39823;BME280;25499;53.958;10.970;2022-12-29T16:31:21;100086.84;;;7.63;100.00
39823;BME280;25499;53.958;10.970;2022-12-29T16:33:50;100076.47;;;7.60;100.00
39823;BME280;25499;53.958;10.970;2022-12-29T16:36:40;100074.78;;;7.53;100.00
39823;BME280;25499;53.958;10.970;2022-12-29T16:41:50;100090.31;;;7.51;100.00
39823;BME280;25499;53.958;10.970;2022-12-29T16:44:21;100087.72;;;7.46;100.00
39823;BME280;25499;53.958;10.970;2022-12-29T16:49:27;100101.56;;;7.39;100.00
39823;BME280;25499;53.958;10.970;2022-12-29T16:51:54;100106.72;;;7.39;100.00
39823;BME280;25499;53.958;10.970;2022-12-29T16:54:31;100098.97;;;7.38;100.00
39823;BME280;25499;53.958;10.970;2022-12-29T16:56:57;100102.44;;;7.34;100.00
39823;BME280;25499;53.958;10.970;2022-12-29T16:59:35;100107.59;;;7.32;100.00
39823;BME280;25499;53.958;10.970;2022-12-29T17:02:08;100099.84;;;7.32;100.00
39823;BME280;25499;53.958;10.970;2022-12-29T17:04:40;100105.88;;;7.23;100.00
39823;BME280;25499;53.958;10.970;2022-12-29T17:07:22;100119.69;;;7.24;100.00
39823;BME280;25499;53.958;10.970;2022-12-29T17:09:48;100112.78;;;7.15;100.00
39823;BME280;25499;53.958;10.970;2022-12-29T17:12:17;100115.38;;;7.17;100.00
39823;BME280;25499;53.958;10.970;2022-12-29T17:14:49;100121.38;;;7.11;100.00
39823;BME280;25499;53.958;10.970;2022-12-29T17:17:20;100130.91;;;7.12;100.00
39823;BME280;25499;53.958;10.970;2022-12-29T17:19:57;100125.69;;;7.07;100.00
39823;BME280;25499;53.958;10.970;2022-12-29T17:22:26;100124.88;;;7.13;100.00
39823;BME280;25499;53.958;10.970;2022-12-29T17:24:54;100121.41;;;7.03;100.00
39823;BME280;25499;53.958;10.970;2022-12-29T17:27:40;100128.31;;;7.10;100.00
39823;BME280;25499;53.958;10.970;2022-12-29T17:30:18;100130.91;;;7.03;100.00
39823;BME280;25499;53.958;10.970;2022-12-29T17:32:52;100124.84;;;6.96;100.00
39823;BME280;25499;53.958;10.970;2022-12-29T17:35:21;100136.91;;;6.94;100.00
39823;BME280;25499;53.958;10.970;2022-12-29T17:37:47;100124.84;;;6.98;100.00
39823;BME280;25499;53.958;10.970;2022-12-29T17:40:25;100122.25;;;6.95;100.00
39823;BME280;25499;53.958;10.970;2022-12-29T17:42:52;100124.84;;;6.93;100.00
39823;BME280;25499;53.958;10.970;2022-12-29T17:45:22;100134.34;;;6.91;100.00
39823;BME280;25499;53.958;10.970;2022-12-29T17:47:48;100136.91;;;6.88;100.00
39823;BME280;25499;53.958;10.970;2022-12-29T17:50:19;100137.78;;;6.91;100.00
39823;BME280;25499;53.958;10.970;2022-12-29T17:52:52;100131.72;;;6.85;100.00
39823;BME280;25499;53.958;10.970;2022-12-29T17:55:20;100131.69;;;6.80;100.00
39823;BME280;25499;53.958;10.970;2022-12-29T17:57:46;100134.31;;;6.85;100.00
39823;BME280;25499;53.958;10.970;2022-12-29T18:00:16;100137.75;;;6.84;100.00
39823;BME280;25499;53.958;10.970;2022-12-29T18:02:43;100142.94;;;6.90;100.00
39823;BME280;25499;53.958;10.970;2022-12-29T18:05:17;100152.41;;;6.80;100.00
39823;BME280;25499;53.958;10.970;2022-12-29T18:07:42;100150.69;;;6.82;100.00
39823;BME280;25499;53.958;10.970;2022-12-29T18:10:08;100150.72;;;6.91;100.00
39823;BME280;25499;53.958;10.970;2022-12-29T18:12:38;100151.56;;;6.86;100.00
39823;BME280;25499;53.958;10.970;2022-12-29T18:15:05;100151.53;;;6.77;100.00
39823;BME280;25499;53.958;10.970;2022-12-29T18:17:31;100161.88;;;6.77;100.00
39823;BME280;25499;53.958;10.970;2022-12-29T18:19:56;100156.72;;;6.80;100.00
39823;BME280;25499;53.958;10.970;2022-12-29T18:22:23;100162.75;;;6.74;100.00
39823;BME280;25499;53.958;10.970;2022-12-29T18:24:49;100155.84;;;6.71;100.00
39823;BME280;25499;53.958;10.970;2022-12-29T18:27:16;100167.03;;;6.67;100.00
39823;BME280;25499;53.958;10.970;2022-12-29T18:29:44;100159.28;;;6.70;100.00
39823;BME280;25499;53.958;10.970;2022-12-29T18:32:11;100160.16;;;6.76;100.00
39823;BME280;25499;53.958;10.970;2022-12-29T18:34:36;100156.69;;;6.75;100.00
39823;BME280;25499;53.958;10.970;2022-12-29T18:37:02;100156.72;;;6.70;100.00
39823;BME280;25499;53.958;10.970;2022-12-29T18:39:34;100166.19;;;6.76;100.00
39823;BME280;25499;53.958;10.970;2022-12-29T18:42:03;100167.94;;;6.76;100.00
39823;BME280;25499;53.958;10.970;2022-12-29T18:44:29;100163.63;;;6.78;100.00
39823;BME280;25499;53.958;10.970;2022-12-29T18:46:54;100173.09;;;6.80;100.00
39823;BME280;25499;53.958;10.970;2022-12-29T18:49:20;100172.28;;;6.86;100.00
39823;BME280;25499;53.958;10.970;2022-12-29T18:51:46;100166.22;;;6.79;100.00
39823;BME280;25499;53.958;10.970;2022-12-29T18:56:48;100161.03;;;6.78;100.00
39823;BME280;25499;53.958;10.970;2022-12-29T18:59:13;100162.75;;;6.77;100.00
39823;BME280;25499;53.958;10.970;2022-12-29T19:01:39;100164.47;;;6.78;100.00
39823;BME280;25499;53.958;10.970;2022-12-29T19:04:04;100159.34;;;6.86;100.00
39823;BME280;25499;53.958;10.970;2022-12-29T19:06:29;100165.34;;;6.82;100.00
39823;BME280;25499;53.958;10.970;2022-12-29T19:08:55;100159.31;;;6.89;100.00
39823;BME280;25499;53.958;10.970;2022-12-29T19:11:20;100163.66;;;6.93;100.00
39823;BME280;25499;53.958;10.970;2022-12-29T19:13:46;100156.75;;;6.97;100.00
39823;BME280;25499;53.958;10.970;2022-12-29T19:16:16;100165.38;;;6.97;100.00
39823;BME280;25499;53.958;10.970;2022-12-29T19:18:42;100168.81;;;6.93;100.00
39823;BME280;25499;53.958;10.970;2022-12-29T19:21:09;100174.00;;;6.95;100.00
39823;BME280;25499;53.958;10.970;2022-12-29T19:23:35;100168.81;;;6.88;100.00
39823;BME280;25499;53.958;10.970;2022-12-29T19:26:00;100169.69;;;6.87;100.00
39823;BME280;25499;53.958;10.970;2022-12-29T19:28:27;100168.81;;;6.88;100.00
39823;BME280;25499;53.958;10.970;2022-12-29T19:30:53;100161.94;;;6.95;100.00
39823;BME280;25499;53.958;10.970;2022-12-29T19:33:21;100157.59;;;6.88;100.00
39823;BME280;25499;53.958;10.970;2022-12-29T19:35:48;100161.03;;;6.88;100.00
39823;BME280;25499;53.958;10.970;2022-12-29T19:38:14;100156.72;;;6.81;100.00
39823;BME280;25499;53.958;10.970;2022-12-29T19:40:45;100161.91;;;6.84;100.00
39823;BME280;25499;53.958;10.970;2022-12-29T19:43:12;100158.44;;;6.76;100.00
39823;BME280;25499;53.958;10.970;2022-12-29T19:45:39;100158.47;;;6.82;100.00
39823;BME280;25499;53.958;10.970;2022-12-29T19:48:05;100155.88;;;6.81;100.00
39823;BME280;25499;53.958;10.970;2022-12-29T19:50:31;100146.34;;;6.73;100.00
39823;BME280;25499;53.958;10.970;2022-12-29T19:52:57;100146.34;;;6.73;100.00
39823;BME280;25499;53.958;10.970;2022-12-29T19:55:23;100148.09;;;6.81;100.00
39823;BME280;25499;53.958;10.970;2022-12-29T19:57:48;100151.50;;;6.73;100.00
39823;BME280;25499;53.958;10.970;2022-12-29T20:00:15;100153.28;;;6.85;100.00
39823;BME280;25499;53.958;10.970;2022-12-29T20:02:42;100146.38;;;6.89;100.00
39823;BME280;25499;53.958;10.970;2022-12-29T20:05:08;100148.97;;;6.83;100.00
39823;BME280;25499;53.958;10.970;2022-12-29T20:07:34;100154.16;;;6.83;100.00
39823;BME280;25499;53.958;10.970;2022-12-29T20:09:59;100146.38;;;6.89;100.00
39823;BME280;25499;53.958;10.970;2022-12-29T20:12:25;100146.38;;;6.84;100.00
39823;BME280;25499;53.958;10.970;2022-12-29T20:14:50;100148.97;;;6.81;100.00
39823;BME280;25499;53.958;10.970;2022-12-29T20:17:16;100145.53;;;6.87;100.00
39823;BME280;25499;53.958;10.970;2022-12-29T20:19:42;100150.69;;;6.84;100.00
39823;BME280;25499;53.958;10.970;2022-12-29T20:22:11;100156.75;;;6.94;100.00
39823;BME280;25499;53.958;10.970;2022-12-29T20:24:37;100172.28;;;6.94;100.00
39823;BME280;25499;53.958;10.970;2022-12-29T20:27:08;100173.13;;;6.89;100.00
39823;BME280;25499;53.958;10.970;2022-12-29T20:29:36;100181.75;;;6.90;100.00
39823;BME280;25499;53.958;10.970;2022-12-29T20:32:06;100197.28;;;6.91;100.00
39823;BME280;25499;53.958;10.970;2022-12-29T20:34:33;100192.97;;;6.95;100.00
39823;BME280;25499;53.958;10.970;2022-12-29T20:37:01;100195.53;;;6.89;100.00
39823;BME280;25499;53.958;10.970;2022-12-29T20:39:26;100196.44;;;6.91;100.00
39823;BME280;25499;53.958;10.970;2022-12-29T20:41:52;100204.16;;;6.82;100.00
39823;BME280;25499;53.958;10.970;2022-12-29T20:44:17;100212.78;;;6.78;100.00
39823;BME280;25499;53.958;10.970;2022-12-29T20:46:43;100214.50;;;6.74;100.00
39823;BME280;25499;53.958;10.970;2022-12-29T20:49:08;100229.13;;;6.75;100.00
39823;BME280;25499;53.958;10.970;2022-12-29T20:51:34;100235.19;;;6.77;100.00
39823;BME280;25499;53.958;10.970;2022-12-29T20:53:59;100228.22;;;6.58;100.00
39823;BME280;25499;53.958;10.970;2022-12-29T20:56:26;100208.31;;;6.43;100.00
39823;BME280;25499;53.958;10.970;2022-12-29T20:58:54;100223.81;;;6.37;100.00
39823;BME280;25499;53.958;10.970;2022-12-29T21:01:22;100221.13;;;6.26;100.00
39823;BME280;25499;53.958;10.970;2022-12-29T21:03:48;100226.28;;;6.20;100.00
